Kezdőlap
METAR-TAF:

METAR-TAF

Repülőterek :

Lawrence Municipal Airport

Lawrence, Kansas, Amerikai Egyesült Államok

földrajzi szélesség: 39-00-30N, földrajzi hosszúság: 095-12-42W, magasság: 253 m

Jelenlegi meteorológiai megfigyelések

A jelentés 12 perccel ezelõtt készült, 16:40 UTC
Északi szél 17 kt széllökések: 29 kt
Hőmérséklet 12°C
Páratartalom 82%
Légköri nyomás 1016 hPa
Látótávolság: 4.8 km
Borult 1400 lábon
zivatar a közelben, enyhe esõ, Párásság

METAR: KLWC 181640Z AUTO 01017G29KT 3SM VCTS -RA BR OVC014 12/09 A2999 RMK AO1 PK WND 36030/1629 P0011 T01170094

Idő: 11:52 (16:52 UTC)


TAF: hiányzik

Meteorológiai megfigyelések és előrejelzések több, mint 4000 repülőtéren (METAR és TAF jelentéseket).

A térképen piros és sárga pontok jelzik az elérhető meteorológiai állomásokat.

Mozgassa az egeret a pont fölött, hogy megjelenjen az állomás neve.

Azután kattintson az időjárási megfigyelések és előrejelzések megtekintéséhez.

A térkép megváltoztatása: kattintson a fekete keresztel jelölt zöld gombra ráközelítéshez, a vonallal jelölt zöld gombra távolításhoz, vagy a zöld nyilakra a szomszédos térképek eléréséhez.


METAR-TAF: